createdAt,value
2017-10-28T00:00:03.557Z,4.50
2017-10-28T00:00:07.773Z,4.40
2017-10-28T00:00:12.026Z,4.30
2017-10-28T00:00:16.274Z,4.30
2017-10-28T00:00:20.521Z,4.30
2017-10-28T00:00:24.728Z,4.30
2017-10-28T00:00:29.009Z,4.40
2017-10-28T00:00:33.241Z,4.23
2017-10-28T00:00:37.482Z,4.25
2017-10-28T00:00:41.725Z,4.40
2017-10-28T00:00:45.986Z,4.50
2017-10-28T00:00:50.242Z,4.50
2017-10-28T00:00:54.508Z,4.50
2017-10-28T00:42:16.212Z,3.30
2017-10-28T00:42:21.211Z,3.25
2017-10-28T00:42:25.539Z,3.23
2017-10-28T00:42:30.556Z,3.30
2017-10-28T00:42:35.791Z,3.27
2017-10-28T00:42:40.038Z,3.37
2017-10-28T00:42:44.334Z,3.35
2017-10-28T00:42:48.589Z,3.50
2017-10-28T00:42:53.582Z,3.55
2017-10-28T00:42:57.836Z,3.57
2017-10-28T00:43:02.086Z,3.50
2017-10-28T00:43:06.317Z,3.35
2017-10-28T00:43:10.545Z,3.30
2017-10-28T00:43:14.791Z,3.40
2017-10-28T00:43:19.035Z,3.40
2017-10-28T00:43:23.296Z,3.50
2017-10-28T00:43:28.297Z,3.30
2017-10-28T00:43:32.530Z,3.30
2017-10-28T00:43:36.778Z,3.40
2017-10-28T00:43:41.026Z,3.40
2017-10-28T00:43:46.047Z,3.33
2017-10-28T00:43:50.301Z,3.37
2017-10-28T00:43:54.545Z,3.30
2017-10-28T00:43:58.777Z,3.35
2017-10-28T00:44:03.014Z,3.40
2017-10-28T00:44:07.250Z,3.53
2017-10-28T00:44:11.503Z,3.70
2017-10-28T00:44:15.734Z,3.70
2017-10-28T00:44:20.751Z,3.70
2017-10-28T00:44:25.767Z,3.70
2017-10-28T00:44:30.764Z,3.73
2017-10-28T00:44:35.009Z,3.77
2017-10-28T00:44:39.252Z,3.70
2017-10-28T00:44:43.497Z,3.80
2017-10-28T00:44:47.736Z,3.80
2017-10-28T00:44:52.019Z,3.83
2017-10-28T00:44:56.274Z,3.90
2017-10-28T00:45:00.517Z,3.80
2017-10-28T00:45:04.761Z,3.80
2017-10-28T00:45:09.011Z,3.67
2017-10-28T00:45:13.244Z,3.60
2017-10-28T00:45:17.515Z,3.60
2017-10-28T00:45:21.761Z,3.60
2017-10-28T00:45:26.001Z,3.60
2017-10-28T00:45:30.261Z,3.65
2017-10-28T00:45:34.492Z,3.50
2017-10-28T00:45:38.759Z,3.60
2017-10-28T00:45:42.985Z,3.45
2017-10-28T00:45:48.011Z,3.40
2017-10-28T00:45:53.020Z,3.37
2017-10-28T00:45:58.018Z,3.30
2017-10-28T00:46:02.271Z,3.30
2017-10-28T00:46:06.519Z,3.30
2017-10-28T00:46:10.759Z,3.30
2017-10-28T00:46:14.978Z,3.30
2017-10-28T00:46:19.216Z,3.20
2017-10-28T00:46:23.460Z,3.10
2017-10-28T00:46:27.758Z,3.10
2017-10-28T00:46:31.990Z,3.25
2017-10-28T00:46:36.248Z,3.25
2017-10-28T00:46:41.222Z,3.20
2017-10-28T00:46:45.489Z,3.00
2017-10-28T00:46:49.720Z,3.00
2017-10-28T00:46:53.953Z,3.20
2017-10-28T00:46:58.945Z,3.40
2017-10-28T00:47:03.182Z,3.40
2017-10-28T00:47:07.436Z,3.40
2017-10-28T00:47:11.679Z,3.40
2017-10-28T00:47:16.697Z,3.40
2017-10-28T00:47:20.939Z,3.57
2017-10-28T00:47:25.202Z,3.60
2017-10-28T00:47:29.632Z,3.50
2017-10-28T00:47:33.866Z,3.35
2017-10-28T00:47:38.163Z,3.40
2017-10-28T00:47:42.422Z,3.40
2017-10-28T00:47:46.688Z,3.45
2017-10-28T00:47:51.702Z,3.50
2017-10-28T00:47:55.939Z,3.23
2017-10-28T00:48:00.206Z,3.13
2017-10-28T00:48:05.205Z,3.10
2017-10-28T00:48:09.447Z,3.10
2017-10-28T00:48:13.663Z,3.25
2017-10-28T00:48:17.914Z,3.30
2017-10-28T00:48:22.254Z,3.20
2017-10-28T00:48:26.478Z,3.20
2017-10-28T00:48:30.716Z,3.20
2017-10-28T00:48:35.323Z,3.20
2017-10-28T00:48:39.552Z,3.30
2017-10-28T00:48:43.802Z,3.35
2017-10-28T00:48:48.212Z,3.30
2017-10-28T00:48:52.492Z,3.30
2017-10-28T00:48:56.743Z,3.40
2017-10-28T00:49:01.745Z,3.63
2017-10-28T00:49:06.753Z,3.70
2017-10-28T00:49:10.998Z,3.73
2017-10-28T00:49:15.245Z,3.55
2017-10-28T00:49:19.509Z,3.50
2017-10-28T00:49:23.767Z,3.60
2017-10-28T00:49:28.015Z,3.50
2017-10-28T00:49:32.267Z,3.50
2017-10-28T00:49:36.511Z,3.55
2017-10-28T00:49:41.383Z,3.60
2017-10-28T00:49:45.603Z,3.60
2017-10-28T00:49:50.595Z,3.50
2017-10-28T00:49:54.887Z,3.60
2017-10-28T00:49:59.105Z,3.50
2017-10-28T00:50:04.124Z,3.50
2017-10-28T00:50:08.375Z,3.60
2017-10-28T00:50:12.609Z,3.93
2017-10-28T00:50:16.860Z,4.10
2017-10-28T00:50:21.094Z,4.20
2017-10-28T00:50:25.341Z,4.10
2017-10-28T00:50:29.581Z,4.10
2017-10-28T00:50:33.806Z,4.10
2017-10-28T00:50:38.037Z,4.00
2017-10-28T00:50:42.290Z,4.00
2017-10-28T00:50:46.566Z,4.00
2017-10-28T00:50:50.807Z,4.00
2017-10-28T00:50:55.039Z,3.85
2017-10-28T00:50:59.282Z,3.90
2017-10-28T00:51:03.516Z,3.75
2017-10-28T00:51:07.731Z,3.65
2017-10-28T00:51:12.743Z,3.25
2017-10-28T00:51:17.770Z,3.00
2017-10-28T00:51:22.009Z,2.83
2017-10-28T00:51:26.295Z,2.90
2017-10-28T00:51:30.521Z,2.90
2017-10-28T00:51:34.753Z,2.90
2017-10-28T00:51:39.061Z,2.90
2017-10-28T00:51:43.318Z,2.90
2017-10-28T00:51:47.531Z,3.05
2017-10-28T00:51:51.826Z,3.10
2017-10-28T00:51:56.073Z,3.07
2017-10-28T00:52:01.069Z,3.00
2017-10-28T00:52:06.097Z,3.03
2017-10-28T00:52:10.305Z,3.17
2017-10-28T00:52:14.531Z,3.25
2017-10-28T00:52:18.829Z,3.30
2017-10-28T00:52:23.101Z,3.40
2017-10-28T00:52:27.322Z,3.45
2017-10-28T00:52:31.594Z,3.40
2017-10-28T00:52:35.827Z,3.50
2017-10-28T00:52:40.949Z,3.55
2017-10-28T00:52:45.171Z,3.60
2017-10-28T00:52:49.396Z,3.60
2017-10-28T00:52:53.621Z,3.80
2017-10-28T00:52:57.917Z,3.77
2017-10-28T00:53:02.166Z,3.80
2017-10-28T00:53:06.396Z,3.80
2017-10-28T00:53:10.641Z,3.90
2017-10-28T00:53:14.892Z,4.05
2017-10-28T00:53:19.139Z,4.20
2017-10-28T00:53:23.384Z,4.20
2017-10-28T00:53:27.620Z,4.20
2017-10-28T00:53:32.612Z,4.30
2017-10-28T00:53:36.866Z,4.20
2017-10-28T00:53:41.099Z,4.35
2017-10-28T00:53:45.325Z,4.40
2017-10-28T00:53:49.549Z,4.23
2017-10-28T00:53:53.792Z,4.10
2017-10-28T00:53:58.017Z,4.10
2017-10-28T00:54:02.249Z,4.10
2017-10-28T00:54:06.506Z,4.07
2017-10-28T00:54:10.744Z,4.00
2017-10-28T00:54:14.978Z,3.85
2017-10-28T00:54:19.213Z,3.80
2017-10-28T00:54:23.479Z,3.63
2017-10-28T00:54:27.716Z,3.60
2017-10-28T00:54:31.925Z,3.60
2017-10-28T00:54:36.921Z,3.65
2017-10-28T00:54:41.150Z,3.57
2017-10-28T00:54:46.173Z,3.30
2017-10-28T00:54:50.432Z,3.30
2017-10-28T00:54:54.660Z,3.30
2017-10-28T00:54:59.685Z,3.30
2017-10-28T00:55:04.683Z,3.30
2017-10-28T00:55:08.920Z,3.20
2017-10-28T00:55:13.163Z,3.20
2017-10-28T00:55:17.376Z,3.10
2017-10-28T00:55:21.593Z,3.10
2017-10-28T00:55:26.615Z,3.10
2017-10-28T00:55:31.604Z,3.13
2017-10-28T00:55:35.873Z,3.20
2017-10-28T00:55:40.117Z,3.17
2017-10-28T00:55:44.354Z,3.20
2017-10-28T00:55:48.627Z,3.20
2017-10-28T00:55:53.625Z,3.20
2017-10-28T00:55:57.874Z,3.20
2017-10-28T00:56:02.121Z,3.17
2017-10-28T00:56:06.355Z,3.10
2017-10-28T00:56:11.369Z,3.00
2017-10-28T00:56:16.387Z,3.00
2017-10-28T00:56:21.410Z,3.00
2017-10-28T00:56:25.762Z,3.00
2017-10-28T00:56:30.033Z,3.10
2017-10-28T00:56:34.289Z,3.10
2017-10-28T00:56:38.545Z,3.35
2017-10-28T00:56:42.770Z,3.40
2017-10-28T00:56:47.006Z,3.40
2017-10-28T00:56:52.022Z,3.40
2017-10-28T00:56:57.049Z,3.40
2017-10-28T00:57:01.277Z,3.57
2017-10-28T00:57:05.523Z,3.60
2017-10-28T00:57:09.802Z,3.70
2017-10-28T00:57:14.031Z,3.70
2017-10-28T00:57:18.277Z,3.80
2017-10-28T00:57:22.541Z,3.90
2017-10-28T00:57:27.557Z,3.95
2017-10-28T00:57:32.596Z,3.80
2017-10-28T00:57:36.837Z,3.70
2017-10-28T00:57:41.290Z,3.50
2017-10-28T00:57:46.323Z,3.50
2017-10-28T00:57:50.558Z,3.50
2017-10-28T00:57:54.812Z,3.50
2017-10-28T00:57:59.067Z,3.40
2017-10-28T00:58:03.290Z,3.40
2017-10-28T00:58:07.538Z,3.57
2017-10-28T00:58:11.765Z,3.80
2017-10-28T00:58:16.009Z,3.70
2017-10-28T00:58:21.003Z,3.70
2017-10-28T00:58:25.247Z,3.72
2017-10-28T00:58:29.502Z,3.65
2017-10-28T00:58:33.725Z,3.65
2017-10-28T00:58:38.714Z,3.70
2017-10-28T00:58:42.946Z,3.60
2017-10-28T00:58:47.208Z,3.57
2017-10-28T00:58:51.460Z,3.60
2017-10-28T00:58:55.693Z,3.60
2017-10-28T00:58:59.945Z,3.70
2017-10-28T00:59:04.968Z,3.60
2017-10-28T00:59:09.987Z,3.20
2017-10-28T00:59:14.250Z,3.10
2017-10-28T00:59:18.503Z,3.10
2017-10-28T00:59:22.747Z,3.00
2017-10-28T00:59:26.981Z,2.93
2017-10-28T00:59:31.251Z,2.90
2017-10-28T00:59:35.505Z,2.80
2017-10-28T00:59:39.756Z,2.80
2017-10-28T00:59:43.995Z,2.90
2017-10-28T00:59:48.246Z,3.00
2017-10-28T00:59:52.478Z,2.90
2017-10-28T00:59:57.482Z,2.90
2017-10-28T01:00:01.845Z,2.80
2017-10-28T01:00:06.095Z,2.90
2017-10-28T01:00:11.111Z,3.00
2017-10-28T01:00:16.116Z,3.10
2017-10-28T01:00:20.342Z,3.07
2017-10-28T01:00:24.591Z,3.20
2017-10-28T01:00:28.861Z,3.37
2017-10-28T01:00:33.090Z,3.45
2017-10-28T01:00:37.350Z,3.60
2017-10-28T01:00:41.572Z,3.60
2017-10-28T01:00:45.842Z,3.60
2017-10-28T01:00:50.848Z,3.60
2017-10-28T01:00:55.905Z,3.73
2017-10-28T01:01:00.118Z,3.90
2017-10-28T01:01:04.574Z,3.90
2017-10-28T01:01:09.604Z,3.95
2017-10-28T01:01:13.842Z,3.83
2017-10-28T01:01:18.102Z,3.90
2017-10-28T01:01:22.356Z,3.90
2017-10-28T01:01:26.603Z,3.87
2017-10-28T01:01:30.829Z,4.00
2017-10-28T01:01:35.077Z,3.95
2017-10-28T01:01:39.318Z,3.90
2017-10-28T01:01:43.557Z,3.90
2017-10-28T01:01:47.819Z,3.80
2017-10-28T01:01:52.410Z,3.80
2017-10-28T01:01:57.394Z,3.60
2017-10-28T01:02:01.647Z,3.63
2017-10-28T01:02:05.884Z,3.70
2017-10-28T01:02:10.105Z,3.60
2017-10-28T01:02:15.123Z,3.63
2017-10-28T01:02:19.417Z,3.53
2017-10-28T01:02:23.626Z,3.50
2017-10-28T01:02:27.870Z,3.45
2017-10-28T01:02:32.119Z,3.30
2017-10-28T01:02:36.422Z,3.23
2017-10-28T01:02:41.435Z,3.30
2017-10-28T01:02:45.675Z,3.30
2017-10-28T01:02:49.934Z,3.25
2017-10-28T01:02:54.159Z,3.40
2017-10-28T01:02:58.392Z,3.35
2017-10-28T01:03:02.884Z,3.40
2017-10-28T01:03:07.381Z,3.30
2017-10-28T01:03:11.640Z,3.30
2017-10-28T01:03:15.886Z,3.30
2017-10-28T01:03:20.134Z,3.30
2017-10-28T01:03:24.387Z,3.20
2017-10-28T01:03:28.614Z,3.00
2017-10-28T01:03:32.862Z,3.10
2017-10-28T01:03:37.929Z,3.17
2017-10-28T01:03:42.174Z,3.10
2017-10-28T01:03:46.496Z,3.05
2017-10-28T01:03:51.021Z,2.95
2017-10-28T01:03:55.250Z,2.90
2017-10-28T01:03:59.487Z,2.85
2017-10-28T01:04:03.745Z,2.70
2017-10-28T01:04:08.843Z,2.70
2017-10-28T01:04:13.083Z,2.73
2017-10-28T01:04:17.330Z,3.05
2017-10-28T01:04:21.581Z,3.10
2017-10-28T01:04:25.872Z,3.00
2017-10-28T01:04:30.105Z,3.00
2017-10-28T01:04:35.089Z,2.90
2017-10-28T01:04:39.318Z,2.97
2017-10-28T01:04:43.578Z,2.93
2017-10-28T01:04:47.810Z,3.00
2017-10-28T01:04:52.071Z,3.15
2017-10-28T01:04:56.324Z,3.10
2017-10-28T01:05:00.579Z,3.37
2017-10-28T01:05:04.836Z,3.50
2017-10-28T01:05:09.143Z,3.55
2017-10-28T01:05:13.381Z,3.55
2017-10-28T01:05:17.642Z,3.33
2017-10-28T01:05:21.879Z,3.50
2017-10-28T01:05:26.117Z,3.50
2017-10-28T01:05:30.333Z,3.50
2017-10-28T01:05:34.573Z,3.40
2017-10-28T01:05:38.798Z,3.40
2017-10-28T01:05:43.037Z,3.60
2017-10-28T01:05:47.269Z,3.70
2017-10-28T01:05:51.514Z,3.70
2017-10-28T01:05:56.524Z,3.85
2017-10-28T01:06:00.751Z,3.70
2017-10-28T01:06:04.975Z,3.70
2017-10-28T01:06:09.226Z,3.70
2017-10-28T01:06:13.478Z,3.65
2017-10-28T01:06:17.752Z,3.60
2017-10-28T01:06:22.007Z,3.50
2017-10-28T01:06:27.251Z,3.50
2017-10-28T01:06:31.999Z,3.40
2017-10-28T01:06:36.396Z,3.63
2017-10-28T01:06:41.374Z,3.70
2017-10-28T01:06:45.612Z,3.53
2017-10-28T01:06:49.879Z,3.45
2017-10-28T01:06:54.108Z,3.30
2017-10-28T01:06:58.379Z,3.30
2017-10-28T01:07:02.642Z,3.40
2017-10-28T01:07:07.120Z,3.30
2017-10-28T01:07:11.610Z,3.30
2017-10-28T01:07:17.704Z,3.20
2017-10-28T01:07:22.065Z,3.20
2017-10-28T01:07:27.073Z,3.20
2017-10-28T01:07:32.877Z,3.40
2017-10-28T01:07:37.162Z,3.33
2017-10-28T01:07:41.761Z,3.20
2017-10-28T01:07:46.006Z,3.37
2017-10-28T01:07:51.013Z,3.40
2017-10-28T01:07:55.250Z,3.50
2017-10-28T01:07:59.557Z,3.50
2017-10-28T01:08:06.860Z,3.45
2017-10-28T01:08:12.443Z,3.42
2017-10-28T01:08:18.375Z,3.60
2017-10-28T01:08:23.518Z,3.70
2017-10-28T01:08:27.801Z,3.70
2017-10-28T01:08:32.798Z,3.60
2017-10-28T01:08:38.023Z,3.70
2017-10-28T01:08:42.268Z,3.70
2017-10-28T01:08:46.502Z,3.53
2017-10-28T01:08:50.721Z,3.40
2017-10-28T01:09:09.357Z,3.30
2017-10-28T01:09:14.058Z,3.40
2017-10-28T01:09:19.261Z,3.35
2017-10-28T01:09:23.506Z,3.20
2017-10-28T01:09:27.800Z,3.30
2017-10-28T01:09:32.052Z,3.30
2017-10-28T01:09:36.343Z,3.30
2017-10-28T01:09:40.575Z,3.30
2017-10-28T01:09:44.821Z,3.25
2017-10-28T01:09:49.065Z,3.30
2017-10-28T01:09:53.317Z,3.30
2017-10-28T01:09:57.553Z,3.20
2017-10-28T01:10:01.871Z,3.10
2017-10-28T01:10:07.551Z,3.10
2017-10-28T01:10:12.589Z,3.00
2017-10-28T01:10:17.587Z,3.10
2017-10-28T01:10:21.839Z,3.20
2017-10-28T01:10:26.086Z,3.17
2017-10-28T01:10:31.103Z,3.20
2017-10-28T01:10:36.126Z,3.20
2017-10-28T01:10:41.150Z,3.33
2017-10-28T01:10:45.527Z,3.40
2017-10-28T01:10:49.879Z,3.30
2017-10-28T01:10:54.603Z,3.33
2017-10-28T01:10:58.848Z,3.47
2017-10-28T01:11:03.862Z,3.50
2017-10-28T01:11:08.115Z,3.50
2017-10-28T01:11:12.355Z,3.50
2017-10-28T01:11:16.573Z,3.50
2017-10-28T01:11:20.822Z,3.40
2017-10-28T01:11:25.124Z,3.40
2017-10-28T01:11:30.260Z,3.25
2017-10-28T01:11:34.507Z,3.20
2017-10-28T01:11:38.754Z,3.23
2017-10-28T01:11:42.989Z,3.20
2017-10-28T01:11:47.990Z,3.20
2017-10-28T01:11:52.649Z,3.27
2017-10-28T01:11:57.254Z,3.23
2017-10-28T01:12:02.330Z,3.25
2017-10-28T01:12:07.358Z,3.50
2017-10-28T01:12:11.609Z,3.50
2017-10-28T01:12:15.840Z,3.50
2017-10-28T01:12:20.099Z,3.50
2017-10-28T01:12:24.351Z,3.50
2017-10-28T01:12:29.606Z,3.57
2017-10-28T01:12:33.832Z,3.60
2017-10-28T01:12:38.187Z,3.60
2017-10-28T01:12:43.192Z,3.60
2017-10-28T01:12:48.284Z,3.93
2017-10-28T01:12:52.556Z,4.00
2017-10-28T01:12:56.787Z,4.00
2017-10-28T01:13:01.066Z,4.00
2017-10-28T01:13:05.344Z,3.73
2017-10-28T01:13:09.828Z,3.80
2017-10-28T01:13:14.073Z,3.85
2017-10-28T01:13:18.425Z,3.83
2017-10-28T01:13:23.476Z,3.90
2017-10-28T01:13:27.708Z,3.90
2017-10-28T01:13:31.944Z,3.80
2017-10-28T01:13:36.233Z,3.80
2017-10-28T01:13:40.488Z,3.70
2017-10-28T01:13:44.724Z,3.55
2017-10-28T01:13:48.999Z,3.30
2017-10-28T01:13:53.258Z,3.30
2017-10-28T01:13:58.256Z,3.40
2017-10-28T01:14:02.557Z,3.30
2017-10-28T01:14:06.963Z,3.30
2017-10-28T01:14:11.474Z,3.40
2017-10-28T01:14:15.812Z,3.40
2017-10-28T01:14:20.101Z,3.50
2017-10-28T01:14:25.111Z,3.50
2017-10-28T01:14:30.154Z,3.77
2017-10-28T01:14:34.397Z,4.10
2017-10-28T01:14:38.648Z,4.10
2017-10-28T01:14:42.973Z,4.20
2017-10-28T01:14:47.190Z,4.20
2017-10-28T01:14:51.476Z,4.10
2017-10-28T01:14:55.750Z,4.10
2017-10-28T01:14:59.989Z,4.17
2017-10-28T01:15:04.262Z,4.20
2017-10-28T01:15:08.519Z,4.25
2017-10-28T01:15:12.767Z,4.33
2017-10-28T01:15:17.012Z,4.40
2017-10-28T01:15:21.241Z,4.40
2017-10-28T01:15:25.472Z,4.40
2017-10-28T01:15:29.772Z,4.03
2017-10-28T01:15:34.096Z,3.80
2017-10-28T01:15:38.326Z,3.90
2017-10-28T01:15:43.321Z,3.73
2017-10-28T01:15:47.566Z,3.70
2017-10-28T01:15:51.817Z,3.80
2017-10-28T01:15:56.036Z,3.80
2017-10-28T01:16:01.130Z,3.70
2017-10-28T01:16:05.380Z,3.70
2017-10-28T01:16:09.627Z,3.37
2017-10-28T01:16:13.928Z,3.40
2017-10-28T01:16:18.168Z,3.25
2017-10-28T01:16:23.184Z,3.20
2017-10-28T01:16:28.192Z,3.17
2017-10-28T01:16:33.189Z,3.17
2017-10-28T01:16:37.471Z,3.17
2017-10-28T01:16:41.825Z,3.35
2017-10-28T01:16:46.830Z,3.40
2017-10-28T01:16:51.049Z,3.50
2017-10-28T01:16:55.270Z,3.50
2017-10-28T01:16:59.497Z,3.45
2017-10-28T01:17:04.168Z,3.45
2017-10-28T01:17:09.153Z,3.50
2017-10-28T01:17:14.165Z,3.40
2017-10-28T01:17:18.415Z,3.40
2017-10-28T01:17:22.658Z,3.40
2017-10-28T01:17:26.911Z,3.40
2017-10-28T01:17:31.151Z,3.43
2017-10-28T01:17:35.403Z,3.40
2017-10-28T01:17:39.644Z,3.40
2017-10-28T01:17:43.859Z,3.40
2017-10-28T01:17:48.928Z,3.40
2017-10-28T01:17:53.668Z,3.47
2017-10-28T01:17:57.938Z,3.70
2017-10-28T01:18:02.161Z,3.70
2017-10-28T01:18:06.415Z,3.60
2017-10-28T01:18:11.440Z,3.60
2017-10-28T01:18:15.662Z,3.43
2017-10-28T01:18:19.878Z,3.40
2017-10-28T01:18:24.130Z,3.40
2017-10-28T01:18:29.150Z,3.50
2017-10-28T01:18:34.166Z,3.50
2017-10-28T01:18:39.148Z,3.50
2017-10-28T01:18:43.374Z,3.30
2017-10-28T01:18:48.381Z,3.30
2017-10-28T01:18:52.636Z,3.30
2017-10-28T01:18:56.879Z,3.23
2017-10-28T01:19:01.126Z,3.10
2017-10-28T01:19:05.360Z,3.20
2017-10-28T01:19:09.602Z,3.30
2017-10-28T01:19:14.652Z,3.43
2017-10-28T01:19:19.216Z,3.60
2017-10-28T01:19:24.355Z,3.53
2017-10-28T01:19:29.396Z,3.60
2017-10-28T01:19:33.806Z,3.60
2017-10-28T01:19:38.077Z,3.60
2017-10-28T01:19:43.095Z,3.60
2017-10-28T01:19:48.105Z,3.53
2017-10-28T01:19:53.143Z,3.50
2017-10-28T01:19:57.417Z,3.50
2017-10-28T01:20:01.698Z,3.50
2017-10-28T01:20:06.717Z,3.45
2017-10-28T01:20:11.800Z,3.53
2017-10-28T01:20:16.034Z,3.57
2017-10-28T01:20:20.329Z,3.50
2017-10-28T01:20:24.597Z,3.50
2017-10-28T01:20:28.965Z,3.50
2017-10-28T01:20:33.188Z,3.40
2017-10-28T01:20:38.186Z,3.50
2017-10-28T01:20:43.216Z,3.57
2017-10-28T01:20:48.219Z,3.70
2017-10-28T01:20:53.282Z,3.80
2017-10-28T01:20:57.534Z,3.70
2017-10-28T01:21:01.771Z,3.70
2017-10-28T01:21:06.029Z,3.75
2017-10-28T01:21:10.283Z,3.77
2017-10-28T01:21:14.517Z,3.70
2017-10-28T01:21:18.747Z,3.70
2017-10-28T01:21:23.883Z,3.70
2017-10-28T01:21:28.121Z,3.70
2017-10-28T01:21:32.366Z,3.70
2017-10-28T01:21:37.379Z,3.75
2017-10-28T01:21:41.615Z,3.70
2017-10-28T01:21:45.864Z,3.50
2017-10-28T01:21:50.095Z,3.40
2017-10-28T01:21:54.320Z,3.40
2017-10-28T01:21:58.563Z,3.60
2017-10-28T01:22:02.820Z,3.70
2017-10-28T01:22:07.065Z,3.70
2017-10-28T01:22:11.410Z,3.50
2017-10-28T01:22:15.704Z,3.50
2017-10-28T01:22:19.973Z,3.50
2017-10-28T01:22:24.984Z,3.50
2017-10-28T01:22:29.226Z,3.47
2017-10-28T01:22:33.486Z,3.50
2017-10-28T01:22:37.904Z,3.50
2017-10-28T01:22:42.907Z,3.60
2017-10-28T01:22:47.921Z,3.70
2017-10-28T01:22:52.156Z,3.80
2017-10-28T01:22:56.442Z,3.70
2017-10-28T01:23:00.679Z,3.60
2017-10-28T01:23:04.919Z,3.50
2017-10-28T01:23:09.261Z,3.60
2017-10-28T01:23:13.512Z,3.70
2017-10-28T01:23:17.911Z,3.80
2017-10-28T01:23:22.266Z,3.80
2017-10-28T01:23:26.577Z,3.80
2017-10-28T01:23:30.862Z,3.70
2017-10-28T01:23:35.149Z,3.70
2017-10-28T01:23:39.387Z,3.60
2017-10-28T01:23:43.648Z,3.60
2017-10-28T01:23:48.724Z,3.65
2017-10-28T01:23:52.982Z,3.77
2017-10-28T01:23:57.252Z,3.90
2017-10-28T01:24:01.951Z,3.80
2017-10-28T01:24:07.976Z,3.90
2017-10-28T01:24:12.227Z,3.80
2017-10-28T01:24:16.608Z,3.80
2017-10-28T01:24:22.577Z,3.73
2017-10-28T01:24:26.834Z,3.70
2017-10-28T01:24:31.074Z,3.85
2017-10-28T01:24:36.074Z,3.90
2017-10-28T01:24:41.078Z,3.83
2017-10-28T01:24:45.311Z,3.73
2017-10-28T01:24:49.541Z,3.70
2017-10-28T01:24:53.808Z,3.60
2017-10-28T01:24:58.047Z,3.60
2017-10-28T01:25:02.303Z,3.70
2017-10-28T01:25:07.325Z,3.70
2017-10-28T01:25:11.569Z,3.70
2017-10-28T01:25:15.834Z,3.70
2017-10-28T01:25:20.849Z,3.80
2017-10-28T01:25:25.094Z,3.93
2017-10-28T01:25:29.351Z,4.00
2017-10-28T01:25:33.605Z,4.00
2017-10-28T01:25:37.832Z,4.10
2017-10-28T01:25:42.088Z,4.23
2017-10-28T01:25:46.321Z,4.40
2017-10-28T01:25:50.655Z,4.40
2017-10-28T01:25:54.919Z,4.43
2017-10-28T01:25:59.163Z,4.70
2017-10-28T01:26:03.389Z,4.70
2017-10-28T01:26:07.651Z,4.60
2017-10-28T01:26:11.898Z,4.50
2017-10-28T01:26:16.143Z,4.50
2017-10-28T01:26:21.300Z,4.40
2017-10-28T01:26:25.530Z,4.40
2017-10-28T01:26:29.765Z,4.37
2017-10-28T01:26:34.790Z,4.30
2017-10-28T01:26:39.045Z,4.20
2017-10-28T01:26:44.048Z,4.05
2017-10-28T01:26:48.270Z,3.97
2017-10-28T01:26:52.511Z,3.90
2017-10-28T01:26:56.790Z,3.67
2017-10-28T01:27:01.803Z,3.60
2017-10-28T01:27:06.045Z,3.67
2017-10-28T01:27:10.269Z,3.70
2017-10-28T01:27:14.518Z,3.63
2017-10-28T01:27:18.750Z,3.70
2017-10-28T01:27:23.026Z,3.75
2017-10-28T01:27:28.027Z,3.70
2017-10-28T01:27:33.049Z,3.67
2017-10-28T01:27:37.300Z,3.60
2017-10-28T01:27:41.555Z,3.77
2017-10-28T01:27:45.796Z,3.80
2017-10-28T01:27:50.060Z,3.85
2017-10-28T01:27:54.307Z,3.90
2017-10-28T01:27:58.559Z,3.80
2017-10-28T01:28:03.565Z,3.80
2017-10-28T01:28:08.572Z,3.70
2017-10-28T01:28:12.832Z,3.80
2017-10-28T01:28:17.065Z,3.80
2017-10-28T01:28:21.309Z,3.80
2017-10-28T01:28:25.551Z,3.70
2017-10-28T01:28:29.801Z,3.70
2017-10-28T01:28:34.031Z,3.70
2017-10-28T01:28:38.288Z,3.63
2017-10-28T01:28:43.283Z,3.70
2017-10-28T01:28:47.518Z,3.60
2017-10-28T01:28:51.737Z,3.50
2017-10-28T01:28:56.885Z,3.50
2017-10-28T01:29:01.141Z,3.50
2017-10-28T01:29:05.380Z,3.40
2017-10-28T01:29:10.371Z,3.45
2017-10-28T01:29:14.622Z,3.70
2017-10-28T01:29:18.856Z,3.60
2017-10-28T01:29:23.099Z,3.60
2017-10-28T01:29:27.335Z,3.60
2017-10-28T01:29:32.350Z,3.60
2017-10-28T01:29:36.596Z,3.60
2017-10-28T01:29:40.855Z,3.53
2017-10-28T01:29:45.855Z,3.50
2017-10-28T01:29:50.104Z,3.60
2017-10-28T01:29:54.354Z,3.60
2017-10-28T01:29:58.574Z,3.60
2017-10-28T01:30:03.580Z,3.57
2017-10-28T01:30:07.846Z,3.67
2017-10-28T01:30:12.849Z,3.50
2017-10-28T01:30:17.097Z,3.40
2017-10-28T01:30:22.142Z,3.40
2017-10-28T01:30:27.186Z,3.37
2017-10-28T01:30:31.411Z,3.53
2017-10-28T01:30:35.659Z,3.60
2017-10-28T01:30:39.903Z,3.75
2017-10-28T01:30:44.163Z,3.80
2017-10-28T01:30:49.150Z,3.80
2017-10-28T01:30:53.392Z,3.90
2017-10-28T01:30:57.657Z,4.10
2017-10-28T01:31:01.902Z,4.20
2017-10-28T01:31:06.137Z,4.20
2017-10-28T01:31:10.394Z,4.20
2017-10-28T01:31:14.635Z,4.20
2017-10-28T01:31:18.887Z,4.30
2017-10-28T01:31:23.124Z,4.40
2017-10-28T01:31:27.367Z,4.43
2017-10-28T01:31:32.371Z,4.55
2017-10-28T01:31:36.611Z,4.60
2017-10-28T01:31:40.853Z,4.50
2017-10-28T01:31:45.096Z,4.50
2017-10-28T01:31:49.338Z,4.50
2017-10-28T01:31:54.422Z,4.40
2017-10-28T01:31:58.681Z,4.30
2017-10-28T01:32:02.970Z,4.20
2017-10-28T01:32:07.372Z,4.20
2017-10-28T01:32:11.618Z,4.20
2017-10-28T01:32:15.867Z,4.20
2017-10-28T01:32:20.106Z,4.03
2017-10-28T01:32:25.141Z,4.00
2017-10-28T01:32:29.416Z,3.97
2017-10-28T01:32:33.625Z,3.70
2017-10-28T01:32:38.624Z,3.85
2017-10-28T01:32:42.884Z,3.93
2017-10-28T01:32:47.135Z,3.97
2017-10-28T01:32:52.135Z,3.90
2017-10-28T01:32:56.370Z,3.90
2017-10-28T01:33:01.361Z,3.90
2017-10-28T01:33:05.601Z,4.00
2017-10-28T01:33:09.843Z,4.00
2017-10-28T01:33:14.082Z,4.07
2017-10-28T01:33:19.097Z,4.25
2017-10-28T01:33:23.330Z,4.40
2017-10-28T01:33:27.564Z,4.70
2017-10-28T01:33:31.787Z,4.90
2017-10-28T01:33:36.817Z,4.75
2017-10-28T01:33:41.094Z,4.57
2017-10-28T01:33:45.343Z,4.50
2017-10-28T01:33:50.336Z,4.60
2017-10-28T01:33:54.583Z,4.70
2017-10-28T01:33:58.830Z,4.70
2017-10-28T01:34:03.848Z,4.80
2017-10-28T01:34:08.903Z,4.77
2017-10-28T01:34:13.187Z,4.63
2017-10-28T01:34:17.426Z,4.40
2017-10-28T01:34:21.675Z,4.40
2017-10-28T01:34:25.903Z,4.35
2017-10-28T01:34:30.192Z,4.00
2017-10-28T01:34:34.421Z,4.05
2017-10-28T01:34:38.686Z,4.10
2017-10-28T01:34:42.905Z,4.30
2017-10-28T01:34:47.165Z,4.30
2017-10-28T01:34:52.200Z,4.30
2017-10-28T01:34:56.440Z,4.33
2017-10-28T01:35:00.688Z,4.60
2017-10-28T01:35:05.722Z,4.60
2017-10-28T01:35:09.951Z,4.73
2017-10-28T01:35:14.193Z,4.95
2017-10-28T01:35:18.458Z,4.97
2017-10-28T01:35:22.699Z,4.80
2017-10-28T01:35:27.718Z,4.80
2017-10-28T01:35:31.969Z,4.90
2017-10-28T01:35:36.221Z,4.97
2017-10-28T01:35:41.218Z,4.95
2017-10-28T01:35:45.484Z,4.73
2017-10-28T01:35:49.705Z,4.70
2017-10-28T01:35:53.976Z,4.85
2017-10-28T01:35:58.752Z,4.80
2017-10-28T01:36:03.811Z,4.65
2017-10-28T01:36:08.084Z,4.70
2017-10-28T01:36:12.365Z,4.53
2017-10-28T01:36:16.625Z,4.55
2017-10-28T01:36:20.865Z,4.50
2017-10-28T01:36:25.865Z,4.50
2017-10-28T01:36:30.106Z,4.60
2017-10-28T01:36:34.348Z,4.45
2017-10-28T01:36:38.587Z,4.25
2017-10-28T01:36:43.666Z,4.35
2017-10-28T01:36:47.976Z,4.35
2017-10-28T01:36:52.277Z,4.15
2017-10-28T01:36:56.521Z,4.00
2017-10-28T01:37:01.539Z,4.25
2017-10-28T01:37:06.557Z,4.20
2017-10-28T01:37:10.824Z,4.30
2017-10-28T01:37:15.059Z,4.50
2017-10-28T01:37:20.050Z,4.60
2017-10-28T01:37:24.303Z,4.60
2017-10-28T01:37:28.589Z,4.40
2017-10-28T01:37:32.835Z,4.40
2017-10-28T01:37:37.075Z,4.50
2017-10-28T01:37:41.306Z,4.55
2017-10-28T01:37:45.521Z,4.60
2017-10-28T01:37:49.763Z,4.60
2017-10-28T01:37:54.767Z,4.60
2017-10-28T01:37:59.003Z,4.57
2017-10-28T01:38:03.230Z,4.55
2017-10-28T01:38:08.449Z,4.60
2017-10-28T01:38:12.788Z,4.47
2017-10-28T01:38:17.139Z,4.30
2017-10-28T01:38:21.368Z,4.20
2017-10-28T01:38:25.615Z,4.20
2017-10-28T01:38:30.665Z,4.30
2017-10-28T01:38:34.911Z,4.37
2017-10-28T01:38:39.146Z,4.30
2017-10-28T01:38:43.425Z,4.23
2017-10-28T01:38:47.661Z,4.50
2017-10-28T01:38:51.916Z,4.45
2017-10-28T01:38:56.955Z,4.50
2017-10-28T01:39:01.183Z,4.60
2017-10-28T01:39:06.366Z,4.37
2017-10-28T01:39:11.372Z,4.40
2017-10-28T01:39:16.377Z,4.50
2017-10-28T01:39:21.403Z,4.67
2017-10-28T01:39:25.622Z,4.80
2017-10-28T01:39:30.612Z,4.80
2017-10-28T01:39:34.854Z,4.70
2017-10-28T01:39:39.106Z,4.80
2017-10-28T01:39:43.340Z,4.65
2017-10-28T01:39:47.623Z,4.75
2017-10-28T01:39:51.861Z,4.90
2017-10-28T01:39:56.097Z,4.77
2017-10-28T01:40:00.336Z,4.70
2017-10-28T01:40:04.604Z,4.70
2017-10-28T01:40:08.849Z,4.70
2017-10-28T01:40:13.100Z,4.43
2017-10-28T01:40:18.393Z,4.40
2017-10-28T01:40:22.647Z,4.30
2017-10-28T01:40:27.670Z,4.30
2017-10-28T01:40:31.905Z,4.30
2017-10-28T01:40:36.151Z,4.20
2017-10-28T01:40:40.381Z,4.15
2017-10-28T01:40:45.391Z,4.10